Terminal Aerodrome Forecast
Issued by NWS Boston, MA

Home | Current Version | Previous Version | Text Only | Print | Product List | Glossary On
Versions: 1 2 3 4 5 6 7 8 9 10 11 12 13 14 15 16 17 18 19 20 21 22 23 24 25 26 27 28 29 30
696
FTUS41 KBOX 121737
TAFORH
TAF
KORH 121737Z 1218/1318 24007KT P6SM SCT150
     FM122000 23008KT P6SM BKN130
     FM130900 27005KT P6SM BKN090
     FM131300 29011KT P6SM BKN035
     FM131500 30018G30KT P6SM BKN035=

USA.gov is the U.S. government's official web portal to all federal, state and local government web resources and services.